Time;durP1;ratioP1;P1;durP2;ratioP2;P2;SDS_P1;SDS_P2;PMS_P1;PMS_P2;Temp;Humidity;BMP_temperature;BMP_pressure;BME280_temperature;BME280_humidity;BME280_pressure;Samples;Min_cycle;Max_cycle;Signal;HPM_P1;HPM_P2
2022/05/20 15:40:21;;;;;;;5.32;3.38;;;18.20;99.90;;;;;;5016814;27;22168;-61
2022/05/20 15:42:48;;;;;;;5.50;3.83;;;18.20;99.90;;;;;;5001126;28;20222;-61
2022/05/20 15:45:17;;;;;;;7.38;3.83;;;18.10;99.90;;;;;;4971712;28;20217;-61
2022/05/20 15:47:44;;;;;;;4.53;3.30;;;18.10;99.90;;;;;;4986360;28;20564;-62
2022/05/20 15:50:12;;;;;;;5.05;3.65;;;18.00;99.90;;;;;;4972306;28;20210;-62
2022/05/20 15:52:43;;;;;;;7.32;3.85;;;18.00;99.90;;;;;;4971497;28;20258;-61
2022/05/20 15:55:27;;;;;;;4.43;3.67;;;18.00;99.90;;;;;;4984073;28;20251;-61
2022/05/20 15:57:56;;;;;;;4.53;3.90;;;18.00;99.90;;;;;;4993051;28;20202;-62
2022/05/20 16:00:24;;;;;;;5.80;3.80;;;17.90;99.90;;;;;;4972865;28;20214;-62
2022/05/20 16:02:52;;;;;;;4.88;4.40;;;17.80;99.90;;;;;;4975169;28;20921;-62
2022/05/20 16:05:20;;;;;;;3.72;3.40;;;17.80;99.90;;;;;;4964541;28;20249;-61
2022/05/20 16:07:49;;;;;;;4.13;3.72;;;16.60;99.90;;;;;;4980420;28;21078;-62
2022/05/20 16:10:50;;;;;;;5.25;3.67;;;17.90;99.90;;;;;;4962665;28;20656;-63
2022/05/20 16:13:19;;;;;;;8.85;3.50;;;17.40;99.90;;;;;;4986560;28;20941;-63
2022/05/20 16:15:47;;;;;;;3.60;3.25;;;17.50;99.90;;;;;;4970758;28;20328;-63
2022/05/20 16:18:14;;;;;;;7.32;3.83;;;17.40;99.90;;;;;;4969113;28;20206;-63
2022/05/20 16:20:44;;;;;;;7.88;3.53;;;17.40;99.90;;;;;;4971771;28;20436;-63
2022/05/20 16:23:14;;;;;;;7.45;3.88;;;17.40;99.90;;;;;;4981348;28;20339;-63
2022/05/20 16:25:42;;;;;;;5.07;3.40;;;17.00;99.90;;;;;;4973413;28;20328;-62
2022/05/20 16:28:12;;;;;;;3.67;3.38;;;17.30;99.90;;;;;;4977468;28;20257;-63
2022/05/20 16:30:40;;;;;;;6.75;3.28;;;17.30;99.90;;;;;;4974594;28;20578;-63
2022/05/20 16:33:07;;;;;;;6.15;3.72;;;17.30;99.90;;;;;;4994395;28;20348;-62
2022/05/20 16:35:36;;;;;;;5.45;4.10;;;17.30;99.90;;;;;;4977130;28;20226;-62
2022/05/20 16:38:05;;;;;;;5.45;3.78;;;17.30;99.90;;;;;;4976567;28;20237;-62
2022/05/20 16:40:33;;;;;;;8.20;4.07;;;17.30;99.90;;;;;;4972811;28;20223;-62
2022/05/20 16:43:00;;;;;;;5.75;4.18;;;17.30;99.90;;;;;;4957713;28;20226;-63
2022/05/20 16:45:30;;;;;;;4.85;4.18;;;17.20;99.90;;;;;;4984593;28;20203;-63
2022/05/20 16:48:05;;;;;;;5.57;4.65;;;17.20;99.90;;;;;;4961596;28;20234;-63
2022/05/20 16:50:33;;;;;;;8.80;4.75;;;17.10;99.90;;;;;;4974505;28;20226;-63
2022/05/20 16:53:02;;;;;;;6.95;5.60;;;17.10;99.90;;;;;;4969526;28;20226;-62
2022/05/20 16:55:29;;;;;;;7.47;5.85;;;16.90;99.90;;;;;;4967092;28;20729;-63
2022/05/20 17:03:36;;;;;;;7.70;7.00;;;16.90;99.90;;;;;;4924743;28;20230;-64
2022/05/20 17:06:03;;;;;;;10.35;7.18;;;17.00;99.90;;;;;;4964410;28;20905;-62
2022/05/20 17:08:30;;;;;;;10.07;7.72;;;17.00;99.90;;;;;;4968807;28;20213;-63
2022/05/20 17:10:57;;;;;;;12.73;8.18;;;17.40;99.90;;;;;;4966602;28;20206;-63
2022/05/20 17:13:25;;;;;;;11.02;8.73;;;17.00;99.90;;;;;;4963311;28;20211;-63
2022/05/20 17:15:52;;;;;;;10.40;9.02;;;17.00;99.90;;;;;;4969136;28;20682;-63
2022/05/20 17:18:20;;;;;;;17.25;10.13;;;16.90;99.90;;;;;;4952593;28;20269;-63
2022/05/20 17:20:54;;;;;;;13.30;11.30;;;17.30;99.90;;;;;;4964351;28;20212;-65
2022/05/20 17:26:07;;;;;;;13.60;11.07;;;16.90;99.90;;;;;;4986928;28;20268;-64
2022/05/20 17:28:35;;;;;;;14.40;11.57;;;17.10;99.90;;;;;;4961561;28;20219;-64
2022/05/20 17:31:02;;;;;;;14.55;12.95;;;17.00;99.90;;;;;;4956569;28;20307;-61
2022/05/20 17:33:29;;;;;;;18.60;14.48;;;16.90;99.90;;;;;;4971418;28;20227;-63
2022/05/20 17:35:57;;;;;;;18.60;15.43;;;16.40;99.90;;;;;;4954595;28;20305;-63
2022/05/20 17:38:27;;;;;;;21.30;15.98;;;16.70;99.90;;;;;;4978799;28;20235;-63
2022/05/20 17:40:54;;;;;;;25.77;18.35;;;15.00;99.90;;;;;;4976930;28;20210;-64
2022/05/20 17:43:21;;;;;;;19.65;15.38;;;16.60;99.90;;;;;;4977873;28;20338;-64
2022/05/20 17:45:48;;;;;;;17.63;14.15;;;16.50;99.90;;;;;;4956056;28;20226;-64
2022/05/20 17:48:15;;;;;;;17.38;14.15;;;16.90;99.90;;;;;;4965288;28;20258;-65
2022/05/20 17:50:42;;;;;;;18.77;14.38;;;16.40;99.90;;;;;;4958297;28;20227;-66
2022/05/20 17:53:10;;;;;;;18.45;14.13;;;16.60;99.90;;;;;;4979168;28;20585;-66
2022/05/20 17:55:37;;;;;;;18.73;12.43;;;15.90;99.90;;;;;;4954147;28;20280;-66
2022/05/20 17:58:03;;;;;;;17.58;11.48;;;16.00;99.90;;;;;;4963676;28;20211;-65
2022/05/20 18:00:31;;;;;;;18.13;11.25;;;15.90;99.90;;;;;;4947004;28;21062;-66
2022/05/20 18:02:58;;;;;;;18.45;11.95;;;15.90;99.90;;;;;;4980423;28;20830;-66
2022/05/20 18:05:25;;;;;;;15.20;11.43;;;15.90;99.90;;;;;;4953095;28;20561;-66
2022/05/20 18:07:51;;;;;;;11.88;10.35;;;16.10;99.90;;;;;;4961307;28;20221;-66
2022/05/20 18:10:20;;;;;;;23.90;11.13;;;16.10;99.90;;;;;;4953520;28;20202;-66
2022/05/20 18:12:46;;;;;;;16.40;11.88;;;16.10;99.90;;;;;;4982471;28;20199;-66
2022/05/20 18:15:14;;;;;;;16.30;12.77;;;16.20;99.90;;;;;;4958963;28;20206;-67
2022/05/20 18:17:41;;;;;;;20.63;12.63;;;16.20;99.90;;;;;;4959346;28;20914;-66
2022/05/20 18:20:10;;;;;;;21.30;13.48;;;16.30;99.90;;;;;;4971442;28;20253;-66
2022/05/20 18:22:41;;;;;;;17.90;13.57;;;16.30;99.90;;;;;;4951723;28;21066;-67
2022/05/20 18:25:10;;;;;;;18.13;14.32;;;16.30;99.90;;;;;;4980463;28;20651;-66
2022/05/20 18:27:38;;;;;;;21.38;14.35;;;16.30;99.90;;;;;;4966565;28;20625;-66
2022/05/20 18:30:07;;;;;;;16.63;13.63;;;16.40;99.90;;;;;;4963050;28;20210;-66
2022/05/20 18:32:34;;;;;;;17.58;13.77;;;16.30;99.90;;;;;;4954654;28;20203;-66
2022/05/20 18:40:32;;;;;;;12.57;10.40;;;16.50;99.90;;;;;;4977239;28;20237;-66
2022/05/20 18:43:01;;;;;;;15.48;10.40;;;16.30;99.90;;;;;;4973398;28;20258;-66
2022/05/20 18:45:28;;;;;;;15.15;9.63;;;16.20;99.90;;;;;;4970020;28;20219;-65
2022/05/20 18:47:56;;;;;;;10.60;9.50;;;15.00;99.90;;;;;;4966060;28;20221;-65
2022/05/20 18:50:25;;;;;;;13.05;9.85;;;16.00;99.90;;;;;;4970292;28;20238;-65
2022/05/20 18:52:52;;;;;;;10.30;8.63;;;15.90;99.90;;;;;;4971756;28;20210;-65
2022/05/20 18:55:19;;;;;;;13.63;9.75;;;16.00;99.90;;;;;;4975335;28;20231;-65
2022/05/20 18:57:45;;;;;;;12.77;10.13;;;15.80;99.90;;;;;;4975728;28;20311;-63
2022/05/20 19:00:17;;;;;;;13.18;10.88;;;15.70;99.90;;;;;;4976232;28;20240;-62
2022/05/20 19:02:45;;;;;;;15.93;11.40;;;15.70;99.90;;;;;;4967577;28;20207;-65
2022/05/20 19:05:12;;;;;;;14.45;11.02;;;15.80;99.90;;;;;;4983688;28;20570;-65
2022/05/20 19:07:39;;;;;;;17.65;13.25;;;13.10;99.90;;;;;;4954748;28;20242;-65
2022/05/20 19:10:09;;;;;;;16.48;14.10;;;14.80;99.90;;;;;;4968373;28;20211;-65
2022/05/20 19:12:36;;;;;;;16.30;13.75;;;15.70;99.90;;;;;;4972563;28;20215;-65
2022/05/20 19:15:03;;;;;;;16.92;13.85;;;14.70;99.90;;;;;;4965400;28;20881;-65
2022/05/20 19:17:31;;;;;;;16.40;12.43;;;15.80;99.90;;;;;;4975433;28;20223;-66
2022/05/20 19:19:58;;;;;;;16.65;12.88;;;17.50;99.90;;;;;;4974988;28;20738;-65
2022/05/20 19:22:25;;;;;;;12.57;11.13;;;15.60;99.90;;;;;;4967311;28;20210;-66
2022/05/20 19:24:52;;;;;;;12.82;10.10;;;15.50;99.90;;;;;;4962108;28;20870;-66
2022/05/20 19:27:19;;;;;;;6.97;6.30;;;15.40;99.90;;;;;;4984161;28;20697;-66
2022/05/20 19:29:46;;;;;;;10.10;6.68;;;15.30;99.90;;;;;;4965958;28;20235;-66
2022/05/20 19:32:14;;;;;;;8.25;6.32;;;15.30;99.90;;;;;;4963363;28;20222;-66
2022/05/20 19:34:42;;;;;;;7.97;6.40;;;15.20;99.90;;;;;;4964527;28;20957;-66
2022/05/20 19:37:11;;;;;;;8.98;6.10;;;15.10;99.90;;;;;;4970099;28;20208;-66
2022/05/20 19:39:38;;;;;;;8.82;5.72;;;15.70;99.90;;;;;;4959316;28;20727;-66
2022/05/20 19:42:06;;;;;;;12.65;6.28;;;15.20;99.90;;;;;;4976434;28;20222;-66
2022/05/20 19:44:33;;;;;;;7.55;6.80;;;15.30;99.90;;;;;;4945787;28;21083;-66
2022/05/20 19:47:00;;;;;;;10.93;7.60;;;15.30;99.90;;;;;;4947970;28;20257;-66
2022/05/20 19:49:27;;;;;;;7.70;6.90;;;15.30;99.90;;;;;;4970239;28;20211;-66
2022/05/20 19:51:56;;;;;;;8.73;6.45;;;15.40;99.90;;;;;;4953610;28;20206;-67
2022/05/20 19:54:23;;;;;;;9.13;6.50;;;15.30;99.90;;;;;;4966784;28;20206;-66
2022/05/20 19:56:50;;;;;;;7.93;5.78;;;15.20;99.90;;;;;;4968599;28;20223;-66
2022/05/20 20:02:01;;;;;;;5.18;3.95;;;14.90;99.90;;;;;;4961455;28;20257;-66
2022/05/20 20:04:29;;;;;;;7.18;5.35;;;14.60;99.90;;;;;;4959385;28;20211;-66
2022/05/20 20:06:57;;;;;;;9.82;5.55;;;16.40;99.90;;;;;;4959131;28;20285;-66
2022/05/20 20:09:24;;;;;;;7.32;4.90;;;14.50;99.90;;;;;;4956993;28;20199;-66
2022/05/20 20:11:51;;;;;;;6.88;5.50;;;14.10;99.90;;;;;;4963723;28;20203;-65
2022/05/20 20:14:18;;;;;;;8.32;5.72;;;14.00;99.90;;;;;;4960233;28;20766;-66
2022/05/20 20:16:45;;;;;;;10.25;4.88;;;14.00;99.90;;;;;;4963199;28;20222;-66
2022/05/20 20:19:12;;;;;;;6.72;5.13;;;14.00;99.90;;;;;;4985803;28;20214;-66
2022/05/20 20:27:05;;;;;;;10.60;4.65;;;13.80;99.90;;;;;;4958724;28;20241;-66
2022/05/20 20:29:32;;;;;;;9.35;4.20;;;13.80;99.90;;;;;;4972095;28;20604;-66
2022/05/20 20:31:59;;;;;;;7.88;3.97;;;13.70;99.90;;;;;;4980311;28;20206;-66
2022/05/20 20:34:26;;;;;;;6.40;3.85;;;13.80;99.90;;;;;;4966431;28;20211;-66
2022/05/20 20:36:53;;;;;;;6.80;4.13;;;13.90;99.90;;;;;;4961033;28;20283;-66
2022/05/20 20:39:22;;;;;;;7.68;4.65;;;13.80;99.90;;;;;;4977221;28;20223;-66
2022/05/20 20:41:48;;;;;;;4.20;3.80;;;13.80;99.90;;;;;;4961561;28;20766;-65
2022/05/20 20:44:15;;;;;;;8.50;4.72;;;13.60;99.90;;;;;;4983794;28;20223;-65
2022/05/20 20:46:45;;;;;;;7.55;4.75;;;13.60;99.90;;;;;;4954700;28;20202;-66
2022/05/20 20:49:12;;;;;;;8.82;4.82;;;13.60;99.90;;;;;;4966626;28;20226;-65
2022/05/20 20:51:43;;;;;;;5.28;4.38;;;13.60;99.90;;;;;;4944394;28;20488;-66
2022/05/20 20:54:11;;;;;;;11.02;5.63;;;13.90;99.90;;;;;;4964854;28;20537;-65
2022/05/20 20:56:40;;;;;;;10.70;6.22;;;13.80;99.90;;;;;;4943395;28;20387;-66
2022/05/20 20:59:08;;;;;;;11.23;5.55;;;14.00;99.90;;;;;;4983909;28;20587;-66
2022/05/20 21:01:37;;;;;;;8.75;6.18;;;13.80;99.90;;;;;;4953052;28;21328;-66
2022/05/20 21:04:05;;;;;;;7.68;6.03;;;13.40;99.90;;;;;;4966795;28;20789;-66
2022/05/20 21:06:32;;;;;;;10.35;6.03;;;13.50;99.90;;;;;;4971801;28;20453;-65
2022/05/20 21:08:59;;;;;;;10.10;6.05;;;;;;;;;;4946222;28;22375;-66
2022/05/20 21:11:29;;;;;;;7.88;5.22;;;13.40;99.90;;;;;;4955351;28;20341;-66
2022/05/20 21:13:58;;;;;;;8.00;6.22;;;13.30;99.90;;;;;;4984311;28;20203;-65
2022/05/20 21:16:25;;;;;;;11.30;6.40;;;13.40;99.90;;;;;;4967713;28;20206;-66
2022/05/20 21:18:52;;;;;;;10.68;6.72;;;13.30;99.90;;;;;;4973906;28;20222;-65
2022/05/20 21:21:19;;;;;;;10.50;6.75;;;13.30;99.90;;;;;;4958206;28;20241;-65
2022/05/20 21:23:46;;;;;;;8.35;5.88;;;13.40;99.90;;;;;;4949942;28;20353;-65
2022/05/20 21:26:13;;;;;;;16.55;7.35;;;13.30;99.90;;;;;;4968348;28;20207;-65
2022/05/20 21:28:40;;;;;;;10.10;6.80;;;;;;;;;;4958717;28;20787;-66
2022/05/20 21:31:09;;;;;;;11.18;6.47;;;13.20;99.90;;;;;;4966528;28;20206;-66
2022/05/20 21:33:37;;;;;;;8.27;6.00;;;13.30;99.90;;;;;;4968576;28;20226;-65
2022/05/20 21:36:04;;;;;;;9.43;6.70;;;13.30;99.90;;;;;;4966890;28;20215;-66
2022/05/20 21:38:31;;;;;;;9.77;7.43;;;13.30;99.90;;;;;;4955278;28;20235;-66
2022/05/20 21:40:58;;;;;;;11.13;7.28;;;13.30;99.90;;;;;;4954678;28;21170;-66
2022/05/20 21:43:24;;;;;;;17.83;7.78;;;13.40;99.90;;;;;;4975233;28;20202;-66
2022/05/20 21:45:51;;;;;;;8.80;7.20;;;15.80;99.90;;;;;;4975937;28;20225;-66
2022/05/20 21:48:20;;;;;;;10.55;6.97;;;13.40;99.90;;;;;;4985420;28;20261;-65
2022/05/20 21:50:49;;;;;;;9.93;6.90;;;13.40;99.90;;;;;;4965652;28;20217;-66
2022/05/20 21:53:17;;;;;;;8.00;6.20;;;13.20;99.90;;;;;;4967724;28;20199;-65
2022/05/20 21:55:44;;;;;;;8.30;6.00;;;13.30;99.90;;;;;;4962524;28;20264;-65
2022/05/20 21:58:11;;;;;;;10.93;6.13;;;13.10;99.90;;;;;;4958660;28;20604;-65
2022/05/20 22:09:05;;;;;;;11.05;6.60;;;13.20;99.90;;;;;;4967658;28;21452;-66
2022/05/20 22:11:33;;;;;;;11.05;6.15;;;13.30;99.90;;;;;;4980304;28;20210;-65
2022/05/20 22:13:59;;;;;;;9.32;6.53;;;13.20;99.90;;;;;;4956106;28;20202;-65
2022/05/20 22:16:27;;;;;;;8.43;6.45;;;13.40;99.90;;;;;;4975971;28;20213;-65
2022/05/20 22:18:55;;;;;;;14.52;6.93;;;13.30;99.90;;;;;;4959208;28;20203;-66
2022/05/20 22:21:22;;;;;;;14.05;7.75;;;13.30;99.90;;;;;;4970063;28;20235;-65
2022/05/20 22:23:49;;;;;;;9.82;7.13;;;13.30;99.90;;;;;;4969767;28;20213;-65
2022/05/20 22:26:17;;;;;;;9.98;8.13;;;13.40;99.90;;;;;;4970759;28;20691;-65
2022/05/20 22:28:44;;;;;;;11.85;7.57;;;13.00;99.90;;;;;;4951700;28;20207;-65
2022/05/20 22:31:12;;;;;;;15.32;7.95;;;13.40;99.90;;;;;;4975019;28;20221;-65
2022/05/20 22:33:39;;;;;;;10.57;8.07;;;13.20;99.90;;;;;;4964237;28;20202;-69
2022/05/20 22:36:08;;;;;;;10.35;7.57;;;13.50;99.90;;;;;;4960292;28;20203;-66
2022/05/20 22:38:35;;;;;;;11.77;7.78;;;13.40;99.90;;;;;;4963007;28;20574;-65
2022/05/20 22:41:03;;;;;;;10.90;7.07;;;12.90;99.90;;;;;;4981172;28;20835;-66
2022/05/20 22:43:30;;;;;;;10.80;7.18;;;13.30;99.90;;;;;;4960613;28;20202;-65
2022/05/20 22:45:57;;;;;;;11.45;7.20;;;12.90;99.90;;;;;;4976202;28;20210;-65
2022/05/20 22:48:23;;;;;;;12.68;7.13;;;13.10;99.90;;;;;;4960223;28;20213;-66
2022/05/20 22:50:51;;;;;;;9.88;7.15;;;13.20;99.90;;;;;;4974051;28;20218;-65
2022/05/20 22:53:19;;;;;;;10.20;7.00;;;13.20;99.90;;;;;;4948042;28;20598;-66
2022/05/20 22:58:31;;;;;;;7.55;6.15;;;13.20;99.90;;;;;;4948641;28;21418;-65
2022/05/20 23:00:58;;;;;;;13.27;5.88;;;13.20;99.90;;;;;;4978084;28;20237;-65
2022/05/20 23:03:26;;;;;;;7.68;5.85;;;13.20;99.90;;;;;;4975744;28;20211;-65
2022/05/20 23:05:53;;;;;;;9.23;6.05;;;13.20;99.90;;;;;;4971852;28;20333;-65
2022/05/20 23:08:21;;;;;;;9.30;6.10;;;13.20;99.90;;;;;;4968499;28;20378;-65
2022/05/20 23:10:49;;;;;;;8.38;5.55;;;14.00;99.90;;;;;;4968586;28;20356;-66
2022/05/20 23:13:18;;;;;;;10.57;5.97;;;13.20;99.90;;;;;;4974500;28;20230;-65
2022/05/20 23:15:46;;;;;;;7.80;6.13;;;13.10;99.90;;;;;;4965294;28;20580;-65
2022/05/20 23:18:13;;;;;;;7.88;5.70;;;13.00;99.90;;;;;;4988213;28;20209;-65
2022/05/20 23:20:42;;;;;;;13.00;5.78;;;13.00;99.90;;;;;;4958970;28;20277;-65
2022/05/20 23:23:10;;;;;;;9.07;6.47;;;13.00;99.90;;;;;;4971398;28;20302;-65
2022/05/20 23:25:38;;;;;;;8.85;6.72;;;;;;;;;;4964861;28;20216;-65
2022/05/20 23:28:06;;;;;;;10.48;7.03;;;13.00;99.90;;;;;;4973284;28;20211;-67
2022/05/20 23:30:34;;;;;;;12.25;7.13;;;12.80;99.90;;;;;;4966857;28;20215;-65
2022/05/20 23:33:01;;;;;;;13.75;7.30;;;12.90;99.90;;;;;;4983638;28;20820;-65
2022/05/20 23:35:29;;;;;;;10.90;7.38;;;12.80;99.90;;;;;;4973451;28;20207;-65
2022/05/20 23:37:56;;;;;;;8.95;6.22;;;12.80;99.90;;;;;;4959566;28;20222;-65
2022/05/20 23:40:23;;;;;;;9.82;7.35;;;12.80;99.90;;;;;;4956232;28;20692;-65
2022/05/20 23:42:51;;;;;;;7.53;6.50;;;12.80;99.90;;;;;;4971328;28;20219;-65
2022/05/20 23:45:19;;;;;;;8.90;6.95;;;12.70;99.90;;;;;;4954326;28;20207;-66
2022/05/20 23:47:46;;;;;;;12.50;6.75;;;12.70;99.90;;;;;;4985906;28;20203;-65
2022/05/20 23:50:15;;;;;;;8.07;6.55;;;12.70;99.90;;;;;;4976077;28;20210;-65
2022/05/20 23:52:43;;;;;;;7.47;6.03;;;12.70;99.90;;;;;;4965192;28;20301;-66
2022/05/20 23:57:58;;;;;;;6.70;5.13;;;12.60;99.90;;;;;;4972346;28;20210;-65
